createdAt,value
2022-10-19T00:01:53.539Z,12.57
2022-10-19T00:04:20.027Z,12.57
2022-10-19T00:06:46.473Z,12.59
2022-10-19T00:09:15.128Z,12.60
2022-10-19T00:11:43.569Z,12.61
2022-10-19T00:14:15.665Z,12.62
2022-10-19T00:16:43.702Z,12.65
2022-10-19T00:19:14.026Z,12.66
2022-10-19T00:21:40.844Z,12.69
2022-10-19T00:24:07.788Z,12.69
2022-10-19T00:26:34.920Z,12.72
2022-10-19T00:29:01.768Z,12.73
2022-10-19T00:31:29.616Z,12.72
2022-10-19T00:33:57.102Z,12.72
2022-10-19T00:36:26.416Z,12.69
2022-10-19T00:38:54.405Z,12.68
2022-10-19T00:41:22.950Z,12.67
2022-10-19T00:43:55.109Z,12.70
2022-10-19T00:46:22.127Z,12.70
2022-10-19T00:48:52.514Z,12.72
2022-10-19T00:51:18.985Z,12.73
2022-10-19T00:53:45.478Z,12.75
2022-10-19T00:56:15.214Z,12.74
2022-10-19T00:58:43.560Z,12.75
2022-10-19T01:01:14.268Z,12.75
2022-10-19T01:03:40.901Z,12.75
2022-10-19T01:06:09.743Z,12.75
2022-10-19T01:08:36.166Z,12.76
2022-10-19T01:11:18.102Z,12.78
2022-10-19T01:13:58.404Z,12.79
2022-10-19T01:16:34.148Z,12.80
2022-10-19T01:19:21.296Z,12.82
2022-10-19T01:21:58.419Z,12.82
2022-10-19T01:24:51.944Z,12.82
2022-10-19T01:27:37.606Z,12.80
2022-10-19T01:30:16.108Z,12.80
2022-10-19T01:32:52.693Z,12.76
2022-10-19T01:35:26.675Z,12.75
2022-10-19T01:38:04.888Z,12.73
2022-10-19T01:40:41.169Z,12.73
2022-10-19T01:43:13.535Z,12.71
2022-10-19T01:45:47.300Z,12.70
2022-10-19T01:48:17.374Z,12.70
2022-10-19T01:50:50.506Z,12.69
2022-10-19T01:53:19.702Z,12.69
2022-10-19T01:55:51.013Z,12.69
2022-10-19T01:58:21.588Z,12.69
2022-10-19T02:00:52.851Z,12.70
2022-10-19T02:03:20.320Z,12.69
2022-10-19T02:05:48.390Z,12.70
2022-10-19T02:08:20.579Z,12.70
2022-10-19T02:10:47.809Z,12.70
2022-10-19T02:13:16.191Z,12.69
2022-10-19T02:15:46.534Z,12.69
2022-10-19T02:18:17.817Z,12.70
2022-10-19T02:20:44.576Z,12.67
2022-10-19T02:23:13.410Z,12.64
2022-10-19T02:25:39.943Z,12.56
2022-10-19T02:28:06.749Z,12.53
2022-10-19T02:30:33.529Z,12.50
2022-10-19T02:33:00.197Z,12.49
2022-10-19T02:35:28.154Z,12.48
2022-10-19T02:37:57.797Z,12.48
2022-10-19T02:40:25.159Z,12.48
2022-10-19T02:42:56.547Z,12.48
2022-10-19T02:45:28.040Z,12.45
2022-10-19T02:47:59.871Z,12.44
2022-10-19T02:50:28.341Z,12.43
2022-10-19T02:52:54.806Z,12.41
2022-10-19T02:55:21.218Z,12.41
2022-10-19T02:57:47.645Z,12.38
2022-10-19T03:00:14.233Z,12.39
2022-10-19T03:02:40.676Z,12.39
2022-10-19T03:05:08.458Z,12.37
2022-10-19T03:07:36.726Z,12.37
2022-10-19T03:10:04.044Z,12.36
2022-10-19T03:12:30.489Z,12.36
2022-10-19T03:14:56.932Z,12.34
2022-10-19T03:17:23.472Z,12.33
2022-10-19T03:19:49.892Z,12.32
2022-10-19T03:22:16.426Z,12.31
2022-10-19T03:24:44.237Z,12.29
2022-10-19T03:27:10.744Z,12.29
2022-10-19T03:29:37.198Z,12.28
2022-10-19T03:32:04.904Z,12.27
2022-10-19T03:34:31.332Z,12.25
2022-10-19T03:36:57.757Z,12.24
2022-10-19T03:39:24.460Z,12.24
2022-10-19T03:41:52.246Z,12.23
2022-10-19T03:44:18.656Z,12.21
2022-10-19T03:46:45.077Z,12.21
2022-10-19T03:49:11.828Z,12.20
2022-10-19T03:51:38.410Z,12.20
2022-10-19T03:54:06.860Z,12.20
2022-10-19T03:56:34.538Z,12.20
2022-10-19T03:59:04.255Z,12.20
2022-10-19T04:01:33.093Z,12.18
2022-10-19T04:04:01.477Z,12.19
2022-10-19T04:06:30.131Z,12.18
2022-10-19T04:08:57.520Z,12.18
2022-10-19T04:11:25.957Z,12.18
2022-10-19T04:13:53.581Z,12.19
2022-10-19T04:16:23.451Z,12.21
2022-10-19T04:18:50.378Z,12.22
2022-10-19T04:21:21.855Z,12.21
2022-10-19T04:23:48.468Z,12.21
2022-10-19T04:26:15.067Z,12.20
2022-10-19T04:28:41.540Z,12.19
2022-10-19T04:31:08.408Z,12.19
2022-10-19T04:33:36.305Z,12.17
2022-10-19T04:36:06.451Z,12.17
2022-10-19T04:38:33.495Z,12.16
2022-10-19T04:41:01.610Z,12.16
2022-10-19T04:46:55.677Z,12.15
2022-10-19T04:49:23.469Z,12.16
2022-10-19T04:51:49.931Z,12.16
2022-10-19T04:54:16.400Z,12.16
2022-10-19T04:56:42.807Z,12.16
2022-10-19T04:59:10.131Z,12.16
2022-10-19T05:01:36.588Z,12.14
2022-10-19T05:04:03.410Z,12.15
2022-10-19T05:06:31.680Z,12.14
2022-10-19T05:08:58.782Z,12.16
2022-10-19T05:11:26.045Z,12.16
2022-10-19T05:13:52.578Z,12.15
2022-10-19T05:16:22.105Z,12.14
2022-10-19T05:18:49.403Z,12.12
2022-10-19T05:21:17.044Z,12.12
2022-10-19T05:23:45.172Z,12.11
2022-10-19T05:26:14.598Z,12.10
2022-10-19T05:28:41.223Z,12.09
2022-10-19T05:31:09.807Z,12.09
2022-10-19T05:33:37.283Z,12.07
2022-10-19T05:36:12.476Z,12.08
2022-10-19T05:38:39.027Z,12.08
2022-10-19T05:41:06.994Z,12.09
2022-10-19T05:43:33.460Z,12.10
2022-10-19T05:46:03.554Z,12.13
2022-10-19T05:48:29.956Z,12.11
2022-10-19T05:50:56.367Z,12.10
2022-10-19T05:53:22.817Z,12.09
2022-10-19T05:55:49.281Z,12.09
2022-10-19T05:58:17.017Z,12.10
2022-10-19T06:00:43.466Z,12.11
2022-10-19T06:03:09.865Z,12.10
2022-10-19T06:05:36.365Z,12.11
2022-10-19T06:08:02.906Z,12.12
2022-10-19T06:10:29.457Z,12.15
2022-10-19T06:12:55.865Z,12.15
2022-10-19T06:15:23.784Z,12.16
2022-10-19T06:17:50.238Z,12.13
2022-10-19T06:20:16.693Z,12.10
2022-10-19T06:22:43.133Z,12.10
2022-10-19T06:25:09.836Z,12.09
2022-10-19T06:27:36.724Z,12.09
2022-10-19T06:30:04.144Z,12.05
2022-10-19T06:32:31.906Z,12.08
2022-10-19T06:34:58.301Z,12.09
2022-10-19T06:37:24.692Z,12.10
2022-10-19T06:39:51.216Z,12.11
2022-10-19T06:42:17.648Z,12.13
2022-10-19T06:44:44.103Z,12.16
2022-10-19T06:47:10.565Z,12.14
2022-10-19T06:49:38.332Z,12.12
2022-10-19T06:52:05.063Z,12.11
2022-10-19T06:54:31.619Z,12.12
2022-10-19T06:56:58.052Z,12.12
2022-10-19T06:59:24.482Z,12.14
2022-10-19T07:01:50.983Z,12.16
2022-10-19T07:04:17.493Z,12.17
2022-10-19T07:06:45.318Z,12.20
2022-10-19T07:09:11.750Z,12.20
2022-10-19T07:11:41.295Z,12.25
2022-10-19T07:14:12.021Z,12.30
2022-10-19T07:16:38.534Z,12.32
2022-10-19T07:19:04.962Z,12.35
2022-10-19T07:21:31.411Z,12.37
2022-10-19T07:23:59.194Z,12.42
2022-10-19T07:26:26.915Z,12.49
2022-10-19T07:28:56.066Z,12.55
2022-10-19T07:31:24.131Z,12.60
2022-10-19T07:33:52.769Z,12.65
2022-10-19T07:36:19.336Z,12.68
2022-10-19T07:38:45.790Z,12.73
2022-10-19T07:41:15.357Z,12.76
2022-10-19T07:43:43.607Z,12.80
2022-10-19T07:46:12.409Z,12.85
2022-10-19T07:48:38.934Z,12.89
2022-10-19T07:51:07.185Z,12.92
2022-10-19T07:53:33.827Z,12.94
2022-10-19T07:56:03.727Z,12.97
2022-10-19T07:58:31.590Z,12.97
2022-10-19T08:01:00.412Z,12.99
2022-10-19T08:06:15.330Z,12.99
2022-10-19T08:08:42.396Z,12.97
2022-10-19T08:11:10.589Z,12.99
2022-10-19T08:13:39.144Z,13.01
2022-10-19T08:16:06.861Z,13.05
2022-10-19T08:21:02.103Z,13.10
2022-10-19T08:23:28.526Z,13.12
2022-10-19T08:26:00.026Z,13.16
2022-10-19T08:28:26.632Z,13.16
2022-10-19T08:30:54.423Z,13.19
2022-10-19T08:33:20.841Z,13.24
2022-10-19T08:35:47.249Z,13.28
2022-10-19T08:38:13.754Z,13.34
2022-10-19T08:40:40.238Z,13.40
2022-10-19T08:43:14.187Z,13.46
2022-10-19T08:45:43.223Z,13.50
2022-10-19T08:48:25.570Z,13.52
2022-10-19T08:50:53.115Z,13.56
2022-10-19T08:53:25.830Z,13.61
2022-10-19T08:56:07.838Z,13.61
2022-10-19T08:58:48.840Z,13.64
2022-10-19T09:01:25.883Z,13.63
2022-10-19T09:03:59.064Z,13.64
2022-10-19T09:06:31.824Z,13.69
2022-10-19T09:08:59.075Z,13.75
2022-10-19T09:11:30.240Z,13.76
2022-10-19T09:14:06.274Z,13.84
2022-10-19T09:16:33.492Z,13.95
2022-10-19T09:19:01.420Z,14.05
2022-10-19T09:21:42.651Z,14.09
2022-10-19T09:24:26.682Z,14.13
2022-10-19T09:30:22.970Z,14.33
2022-10-19T09:32:53.683Z,14.38
2022-10-19T09:35:28.156Z,14.44
2022-10-19T09:37:55.612Z,14.47
2022-10-19T09:40:24.627Z,14.45
2022-10-19T09:42:51.329Z,14.45
2022-10-19T09:45:24.990Z,14.47
2022-10-19T09:47:53.117Z,14.48
2022-10-19T09:50:22.722Z,14.43
2022-10-19T09:52:52.051Z,14.36
2022-10-19T09:55:29.162Z,14.35
2022-10-19T09:58:03.013Z,14.34
2022-10-19T10:00:37.254Z,14.35
2022-10-19T10:03:04.699Z,14.35
2022-10-19T10:05:34.488Z,14.36
2022-10-19T10:08:01.446Z,14.40
2022-10-19T10:10:30.708Z,14.40
2022-10-19T10:12:58.418Z,14.41
2022-10-19T10:15:28.269Z,14.44
2022-10-19T10:17:56.760Z,14.52
2022-10-19T10:20:26.287Z,14.62
2022-10-19T10:22:57.087Z,14.71
2022-10-19T10:25:30.054Z,14.69
2022-10-19T10:27:59.762Z,14.66
2022-10-19T10:30:29.165Z,14.65
2022-10-19T10:33:04.611Z,14.61
2022-10-19T10:35:47.738Z,14.57
2022-10-19T10:38:19.795Z,14.58
2022-10-19T10:40:51.061Z,14.53
2022-10-19T10:43:20.772Z,14.54
2022-10-19T10:45:49.621Z,14.57
2022-10-19T10:48:28.095Z,14.57
2022-10-19T10:50:55.068Z,14.60
2022-10-19T10:53:41.836Z,14.70
2022-10-19T10:56:22.373Z,14.88
2022-10-19T10:58:53.668Z,15.09
2022-10-19T11:01:22.968Z,15.24
2022-10-19T11:03:55.589Z,15.35
2022-10-19T11:06:25.420Z,15.45
2022-10-19T11:09:03.016Z,15.55
2022-10-19T11:11:35.083Z,15.54
2022-10-19T11:14:22.035Z,15.46
2022-10-19T11:16:51.932Z,15.33
2022-10-19T11:19:22.017Z,15.25
2022-10-19T11:21:55.856Z,15.25
2022-10-19T11:24:35.754Z,15.30
2022-10-19T11:27:14.574Z,15.40
2022-10-19T11:29:57.315Z,15.54
2022-10-19T11:32:32.789Z,15.69
2022-10-19T11:35:14.970Z,15.84
2022-10-19T11:38:17.385Z,15.97
2022-10-19T11:40:59.680Z,16.10
2022-10-19T11:43:38.029Z,16.04
2022-10-19T11:46:15.628Z,15.89
2022-10-19T11:49:00.432Z,15.73
2022-10-19T11:51:35.459Z,15.58
2022-10-19T11:54:16.647Z,15.49
2022-10-19T11:57:09.375Z,15.40
2022-10-19T11:59:51.226Z,15.34
2022-10-19T12:02:42.202Z,15.35
2022-10-19T12:05:12.981Z,15.43
2022-10-19T12:07:51.230Z,15.54
2022-10-19T12:10:26.030Z,15.55
2022-10-19T12:12:58.138Z,15.52
2022-10-19T12:15:30.164Z,15.51
2022-10-19T12:18:02.383Z,15.50
2022-10-19T12:20:35.024Z,15.50
2022-10-19T12:23:16.293Z,15.48
2022-10-19T12:25:45.218Z,15.47
2022-10-19T12:28:22.268Z,15.49
2022-10-19T12:30:49.417Z,15.54
2022-10-19T12:33:21.926Z,15.57
2022-10-19T12:35:59.113Z,15.61
2022-10-19T12:38:37.829Z,15.65
2022-10-19T12:41:18.357Z,15.66
2022-10-19T12:43:59.228Z,15.69
2022-10-19T12:46:36.739Z,15.77
2022-10-19T12:49:34.822Z,15.87
2022-10-19T12:52:02.049Z,15.86
2022-10-19T12:54:31.565Z,15.81
2022-10-19T12:57:00.850Z,15.79
2022-10-19T12:59:30.907Z,15.71
2022-10-19T13:01:58.594Z,15.63
2022-10-19T13:04:27.680Z,15.58
2022-10-19T13:07:01.349Z,15.55
2022-10-19T13:09:31.890Z,15.59
2022-10-19T13:12:42.898Z,15.67
2022-10-19T13:15:56.122Z,15.80
2022-10-19T13:18:59.477Z,15.97
2022-10-19T13:21:47.390Z,16.09
2022-10-19T13:24:27.133Z,16.12
2022-10-19T13:27:27.970Z,16.16
2022-10-19T13:29:55.471Z,16.18
2022-10-19T13:32:37.191Z,16.14
2022-10-19T13:35:29.209Z,16.18
2022-10-19T13:38:11.541Z,16.22
2022-10-19T13:40:55.493Z,16.27
2022-10-19T13:43:25.480Z,16.27
2022-10-19T13:45:54.606Z,16.25
2022-10-19T13:48:27.922Z,16.25
2022-10-19T13:51:03.065Z,16.26
2022-10-19T13:53:43.578Z,16.25
2022-10-19T13:56:45.577Z,16.21
2022-10-19T13:59:37.102Z,16.14
2022-10-19T14:02:46.033Z,16.04
2022-10-19T14:05:32.769Z,15.92
2022-10-19T14:08:11.788Z,15.82
2022-10-19T14:13:27.828Z,15.61
2022-10-19T14:15:57.879Z,15.53
2022-10-19T14:18:26.757Z,15.49
2022-10-19T14:20:58.957Z,15.42
2022-10-19T14:23:27.571Z,15.36
2022-10-19T14:25:57.159Z,15.31
2022-10-19T14:28:24.323Z,15.27
2022-10-19T14:30:59.563Z,15.23
2022-10-19T14:33:28.193Z,15.19
2022-10-19T14:35:55.423Z,15.13
2022-10-19T14:38:32.152Z,15.09
2022-10-19T14:40:58.649Z,15.04
2022-10-19T14:43:27.771Z,15.01
2022-10-19T14:46:17.500Z,14.97
2022-10-19T14:48:45.856Z,14.91
2022-10-19T14:51:29.759Z,14.87
2022-10-19T14:54:03.083Z,14.84
2022-10-19T14:56:33.425Z,14.82
2022-10-19T14:59:03.063Z,14.80
2022-10-19T15:01:29.624Z,14.78
2022-10-19T15:03:56.770Z,14.77
2022-10-19T15:06:25.862Z,14.74
2022-10-19T15:08:55.132Z,14.70
2022-10-19T15:11:26.905Z,14.65
2022-10-19T15:14:00.363Z,14.60
2022-10-19T15:16:31.327Z,14.54
2022-10-19T15:19:02.831Z,14.52
2022-10-19T15:21:31.469Z,14.49
2022-10-19T15:24:07.918Z,14.45
2022-10-19T15:26:36.110Z,14.42
2022-10-19T15:29:10.723Z,14.39
2022-10-19T15:31:37.455Z,14.35
2022-10-19T15:34:04.506Z,14.31
2022-10-19T15:36:32.197Z,14.29
2022-10-19T15:39:18.226Z,14.25
2022-10-19T15:41:52.310Z,14.19
2022-10-19T15:44:33.456Z,14.10
2022-10-19T15:47:19.715Z,13.99
2022-10-19T15:49:53.112Z,13.90
2022-10-19T15:52:21.275Z,13.81
2022-10-19T15:54:48.261Z,13.71
2022-10-19T15:57:34.036Z,13.63
2022-10-19T16:00:06.728Z,13.53
2022-10-19T16:02:33.314Z,13.44
2022-10-19T16:05:00.325Z,13.34
2022-10-19T16:07:29.201Z,13.25
2022-10-19T16:09:55.984Z,13.17
2022-10-19T16:12:23.423Z,13.08
2022-10-19T16:14:51.405Z,12.99
2022-10-19T16:17:18.095Z,12.92
2022-10-19T16:19:45.195Z,12.82
2022-10-19T16:22:13.340Z,12.73
2022-10-19T16:24:40.659Z,12.65
2022-10-19T16:27:08.302Z,12.57
2022-10-19T16:29:35.194Z,12.48
2022-10-19T16:32:03.560Z,12.41
2022-10-19T16:34:30.233Z,12.34
2022-10-19T16:36:56.819Z,12.26
2022-10-19T16:39:23.511Z,12.18
2022-10-19T16:41:50.173Z,12.10
2022-10-19T16:44:16.967Z,12.03
2022-10-19T16:46:43.531Z,11.97
2022-10-19T16:49:11.542Z,11.90
2022-10-19T16:51:39.272Z,11.82
2022-10-19T16:54:08.053Z,11.74
2022-10-19T16:56:35.482Z,11.68
2022-10-19T16:59:04.521Z,11.62
2022-10-19T17:01:32.191Z,11.56
2022-10-19T17:03:59.566Z,11.50
2022-10-19T17:06:28.469Z,11.41
2022-10-19T17:11:43.203Z,11.29
2022-10-19T17:14:12.538Z,11.25
2022-10-19T17:16:40.080Z,11.18
2022-10-19T17:19:08.104Z,11.12
2022-10-19T17:21:38.663Z,11.08
2022-10-19T17:24:07.116Z,11.02
2022-10-19T17:26:35.506Z,10.95
2022-10-19T17:29:02.382Z,10.89
2022-10-19T17:31:29.503Z,10.86
2022-10-19T17:33:56.206Z,10.79
2022-10-19T17:36:25.380Z,10.73
2022-10-19T17:38:54.346Z,10.69
2022-10-19T17:41:21.590Z,10.64
2022-10-19T17:43:49.650Z,10.58
2022-10-19T17:46:17.476Z,10.54
2022-10-19T17:48:45.029Z,10.49
2022-10-19T17:51:14.300Z,10.43
2022-10-19T17:53:40.889Z,10.39
2022-10-19T17:56:11.194Z,10.34
2022-10-19T17:58:39.857Z,10.31
2022-10-19T18:01:07.588Z,10.26
2022-10-19T18:03:35.637Z,10.21
2022-10-19T18:06:08.262Z,10.15
2022-10-19T18:08:39.449Z,10.10
2022-10-19T18:11:07.750Z,10.05
2022-10-19T18:16:07.015Z,9.95
2022-10-19T18:18:35.369Z,9.90
2022-10-19T18:21:05.158Z,9.87
2022-10-19T18:23:31.717Z,9.82
2022-10-19T18:26:00.976Z,9.77
2022-10-19T18:28:29.594Z,9.73
2022-10-19T18:31:04.647Z,9.71
2022-10-19T18:33:32.544Z,9.67
2022-10-19T18:35:59.341Z,9.63
2022-10-19T18:38:26.076Z,9.59
2022-10-19T18:40:52.869Z,9.54
2022-10-19T18:43:19.468Z,9.49
2022-10-19T18:45:51.368Z,9.46
2022-10-19T18:48:19.661Z,9.42
2022-10-19T18:50:46.496Z,9.39
2022-10-19T18:53:13.134Z,9.34
2022-10-19T18:55:39.950Z,9.31
2022-10-19T18:58:06.596Z,9.27
2022-10-19T19:00:33.297Z,9.23
2022-10-19T19:02:59.933Z,9.17
2022-10-19T19:05:28.228Z,9.15
2022-10-19T19:07:55.012Z,9.12
2022-10-19T19:10:21.712Z,9.08
2022-10-19T19:12:49.777Z,9.03
2022-10-19T19:15:17.732Z,9.00
2022-10-19T19:17:44.900Z,8.97
2022-10-19T19:20:11.597Z,8.94
2022-10-19T19:22:39.555Z,8.89
2022-10-19T19:25:06.806Z,8.86
2022-10-19T19:27:33.451Z,8.83
2022-10-19T19:30:00.232Z,8.80
2022-10-19T19:32:26.841Z,8.78
2022-10-19T19:34:54.835Z,8.75
2022-10-19T19:37:21.788Z,8.71
2022-10-19T19:39:49.930Z,8.69
2022-10-19T19:42:16.526Z,8.66
2022-10-19T19:44:43.272Z,8.62
2022-10-19T19:47:09.926Z,8.59
2022-10-19T19:49:36.564Z,8.57
2022-10-19T19:52:03.238Z,8.54
2022-10-19T19:54:29.905Z,8.51
2022-10-19T19:56:57.879Z,8.49
2022-10-19T19:59:24.537Z,8.46
2022-10-19T20:01:51.186Z,8.43
2022-10-19T20:04:17.712Z,8.41
2022-10-19T20:06:44.236Z,8.39
2022-10-19T20:09:11.261Z,8.37
2022-10-19T20:11:42.040Z,8.34
2022-10-19T20:14:10.906Z,8.33
2022-10-19T20:16:37.432Z,8.29
2022-10-19T20:19:07.453Z,8.26
2022-10-19T20:21:34.926Z,8.22
2022-10-19T20:24:01.463Z,8.18
2022-10-19T20:26:28.339Z,8.15
2022-10-19T20:28:55.769Z,8.12
2022-10-19T20:31:24.065Z,8.10
2022-10-19T20:33:50.960Z,8.07
2022-10-19T20:36:19.037Z,8.05
2022-10-19T20:38:47.442Z,8.02
2022-10-19T20:41:13.954Z,7.97
2022-10-19T20:43:40.578Z,7.95
2022-10-19T20:46:11.084Z,7.92
2022-10-19T20:48:39.489Z,7.89
2022-10-19T20:51:10.686Z,7.88
2022-10-19T20:53:37.232Z,7.85
2022-10-19T20:56:04.770Z,7.83
2022-10-19T20:58:31.280Z,7.82
2022-10-19T21:01:04.559Z,7.80
2022-10-19T21:03:31.079Z,7.78
2022-10-19T21:06:02.302Z,7.77
2022-10-19T21:08:29.381Z,7.75
2022-10-19T21:10:55.924Z,7.71
2022-10-19T21:13:22.436Z,7.69
2022-10-19T21:15:48.950Z,7.66
2022-10-19T21:18:15.426Z,7.63
2022-10-19T21:20:41.976Z,7.59
2022-10-19T21:23:09.967Z,7.57
2022-10-19T21:25:36.533Z,7.53
2022-10-19T21:28:03.054Z,7.51
2022-10-19T21:30:29.661Z,7.47
2022-10-19T21:32:56.167Z,7.42
2022-10-19T21:35:22.653Z,7.39
2022-10-19T21:37:49.163Z,7.37
2022-10-19T21:40:17.040Z,7.36
2022-10-19T21:42:43.560Z,7.34
2022-10-19T21:45:29.325Z,7.31
2022-10-19T21:47:57.031Z,7.28
2022-10-19T21:50:23.639Z,7.27
2022-10-19T21:52:50.236Z,7.23
2022-10-19T21:55:18.152Z,7.21
2022-10-19T21:57:45.878Z,7.18
2022-10-19T22:00:13.382Z,7.15
2022-10-19T22:02:39.901Z,7.13
2022-10-19T22:05:06.937Z,7.10
2022-10-19T22:07:33.704Z,7.08
2022-10-19T22:10:00.383Z,7.06
2022-10-19T22:12:28.275Z,7.04
2022-10-19T22:14:54.816Z,7.01
2022-10-19T22:17:21.465Z,7.00
2022-10-19T22:19:49.491Z,6.98
2022-10-19T22:22:15.985Z,6.93
2022-10-19T22:24:42.502Z,6.90
2022-10-19T22:27:09.009Z,6.88
2022-10-19T22:29:36.916Z,6.85
2022-10-19T22:32:03.615Z,6.81
2022-10-19T22:34:30.131Z,6.78
2022-10-19T22:36:56.704Z,6.76
2022-10-19T22:39:26.944Z,6.72
2022-10-19T22:41:54.535Z,6.70
2022-10-19T22:44:21.050Z,6.67
2022-10-19T22:46:48.884Z,6.64
2022-10-19T22:49:15.417Z,6.62
2022-10-19T22:51:42.014Z,6.60
2022-10-19T22:54:08.607Z,6.57
2022-10-19T22:56:35.329Z,6.55
2022-10-19T22:59:03.815Z,6.51
2022-10-19T23:01:30.688Z,6.49
2022-10-19T23:03:58.595Z,6.48
2022-10-19T23:06:25.530Z,6.45
2022-10-19T23:08:52.330Z,6.44
2022-10-19T23:11:19.205Z,6.41
2022-10-19T23:13:45.854Z,6.39
2022-10-19T23:16:12.462Z,6.38
2022-10-19T23:18:40.773Z,6.36
2022-10-19T23:21:11.340Z,6.34
2022-10-19T23:23:38.752Z,6.32
2022-10-19T23:26:07.653Z,6.30
2022-10-19T23:28:36.117Z,6.27
2022-10-19T23:31:04.731Z,6.24
2022-10-19T23:33:31.842Z,6.23
2022-10-19T23:36:01.914Z,6.21
2022-10-19T23:38:29.736Z,6.21
2022-10-19T23:40:56.223Z,6.20
2022-10-19T23:43:22.820Z,6.21
2022-10-19T23:45:49.376Z,6.19
2022-10-19T23:48:15.907Z,6.17
2022-10-19T23:50:42.389Z,6.16
2022-10-19T23:53:08.895Z,6.14
2022-10-19T23:55:36.747Z,6.12
2022-10-19T23:58:03.647Z,6.10
